sensor_id;sensor_type;location;lat;lon;timestamp;pressure;altitude;pressure_sealevel;temperature;humidity
6899;BME280;3488;42.616;23.350;2022-11-15T05:57:15;62320.72;;;3.15;100.00
6899;BME280;3488;42.616;23.350;2022-11-15T05:59:42;62319.75;;;3.16;100.00
6899;BME280;3488;42.616;23.350;2022-11-15T06:02:10;62329.97;;;3.24;100.00
6899;BME280;3488;42.616;23.350;2022-11-15T06:04:37;62325.84;;;3.20;100.00
6899;BME280;3488;42.616;23.350;2022-11-15T06:07:04;62306.72;;;2.96;100.00
6899;BME280;3488;42.616;23.350;2022-11-15T06:09:31;62316.09;;;3.10;100.00
6899;BME280;3488;42.616;23.350;2022-11-15T06:11:58;62324.31;;;3.18;100.00
6899;BME280;3488;42.616;23.350;2022-11-15T06:14:26;62321.16;;;3.13;100.00
6899;BME280;3488;42.616;23.350;2022-11-15T06:16:53;62318.13;;;3.12;100.00
6899;BME280;3488;42.616;23.350;2022-11-15T06:19:20;62340.59;;;3.27;100.00
6899;BME280;3488;42.616;23.350;2022-11-15T06:21:47;62355.56;;;3.44;100.00
6899;BME280;3488;42.616;23.350;2022-11-15T06:24:13;62366.47;;;3.60;100.00
6899;BME280;3488;42.616;23.350;2022-11-15T06:26:40;62382.91;;;3.76;100.00
6899;BME280;3488;42.616;23.350;2022-11-15T06:29:09;62362.81;;;3.53;100.00
6899;BME280;3488;42.616;23.350;2022-11-15T06:31:37;62345.78;;;3.34;100.00
6899;BME280;3488;42.616;23.350;2022-11-15T06:34:04;62307.81;;;3.00;100.00
6899;BME280;3488;42.616;23.350;2022-11-15T06:36:30;62326.38;;;3.20;100.00
6899;BME280;3488;42.616;23.350;2022-11-15T06:38:57;62322.22;;;3.14;100.00
6899;BME280;3488;42.616;23.350;2022-11-15T06:41:24;62328.88;;;3.20;100.00
6899;BME280;3488;42.616;23.350;2022-11-15T06:43:51;62345.28;;;3.34;100.00
6899;BME280;3488;42.616;23.350;2022-11-15T06:46:18;62347.97;;;3.41;100.00
6899;BME280;3488;42.616;23.350;2022-11-15T06:48:46;62368.00;;;3.61;100.00
6899;BME280;3488;42.616;23.350;2022-11-15T06:51:14;62366.41;;;3.57;100.00
6899;BME280;3488;42.616;23.350;2022-11-15T06:53:41;62368.00;;;3.61;100.00
6899;BME280;3488;42.616;23.350;2022-11-15T06:56:08;62395.19;;;3.85;100.00
6899;BME280;3488;42.616;23.350;2022-11-15T06:58:35;62384.97;;;3.78;100.00
6899;BME280;3488;42.616;23.350;2022-11-15T07:01:04;62418.88;;;4.08;100.00
6899;BME280;3488;42.616;23.350;2022-11-15T07:03:33;62424.00;;;4.13;100.00
6899;BME280;3488;42.616;23.350;2022-11-15T07:06:02;62462.59;;;4.51;100.00
6899;BME280;3488;42.616;23.350;2022-11-15T07:08:29;62496.56;;;4.84;100.00
6899;BME280;3488;42.616;23.350;2022-11-15T07:10:58;62519.19;;;5.04;100.00
6899;BME280;3488;42.616;23.350;2022-11-15T07:13:26;62533.00;;;5.15;100.00
6899;BME280;3488;42.616;23.350;2022-11-15T07:15:53;62532.63;;;5.19;100.00
6899;BME280;3488;42.616;23.350;2022-11-15T07:18:20;62556.28;;;5.42;100.00
6899;BME280;3488;42.616;23.350;2022-11-15T07:20:47;62543.91;;;5.28;100.00
6899;BME280;3488;42.616;23.350;2022-11-15T07:23:15;62534.16;;;5.21;100.00
6899;BME280;3488;42.616;23.350;2022-11-15T07:25:41;62546.63;;;5.38;100.00
6899;BME280;3488;42.616;23.350;2022-11-15T07:28:08;62538.22;;;5.22;100.00
6899;BME280;3488;42.616;23.350;2022-11-15T07:30:35;62502.75;;;4.90;100.00
6899;BME280;3488;42.616;23.350;2022-11-15T07:33:02;62484.75;;;4.72;100.00
6899;BME280;3488;42.616;23.350;2022-11-15T07:35:29;62514.63;;;5.04;100.00
6899;BME280;3488;42.616;23.350;2022-11-15T07:37:58;62516.06;;;5.01;100.00
6899;BME280;3488;42.616;23.350;2022-11-15T07:40:27;62528.50;;;5.15;100.00
6899;BME280;3488;42.616;23.350;2022-11-15T07:42:59;62537.66;;;5.19;100.00
6899;BME280;3488;42.616;23.350;2022-11-15T07:45:26;62531.53;;;5.16;100.00
6899;BME280;3488;42.616;23.350;2022-11-15T07:47:53;62492.50;;;4.83;100.00
6899;BME280;3488;42.616;23.350;2022-11-15T07:50:22;62497.03;;;4.82;100.00
6899;BME280;3488;42.616;23.350;2022-11-15T07:52:53;62495.06;;;4.85;100.00
6899;BME280;3488;42.616;23.350;2022-11-15T07:55:21;62517.63;;;5.02;100.00
6899;BME280;3488;42.616;23.350;2022-11-15T07:57:49;62529.00;;;5.16;100.00
6899;BME280;3488;42.616;23.350;2022-11-15T08:00:17;62526.44;;;5.13;100.00
6899;BME280;3488;42.616;23.350;2022-11-15T08:02:45;62539.88;;;5.29;100.00
6899;BME280;3488;42.616;23.350;2022-11-15T08:05:12;62540.28;;;5.24;100.00
6899;BME280;3488;42.616;23.350;2022-11-15T08:07:39;62572.72;;;5.56;100.00
6899;BME280;3488;42.616;23.350;2022-11-15T08:10:07;62580.03;;;5.68;100.00
6899;BME280;3488;42.616;23.350;2022-11-15T08:12:34;62610.31;;;5.90;100.00
6899;BME280;3488;42.616;23.350;2022-11-15T08:15:03;62622.31;;;6.09;100.00
6899;BME280;3488;42.616;23.350;2022-11-15T08:17:30;62619.19;;;6.04;100.00
6899;BME280;3488;42.616;23.350;2022-11-15T08:19:59;62572.81;;;5.61;100.00
6899;BME280;3488;42.616;23.350;2022-11-15T08:22:26;62553.16;;;5.37;100.00
6899;BME280;3488;42.616;23.350;2022-11-15T08:24:52;62557.34;;;5.43;100.00
6899;BME280;3488;42.616;23.350;2022-11-15T08:27:20;62559.88;;;5.43;100.00
6899;BME280;3488;42.616;23.350;2022-11-15T08:29:49;62569.69;;;5.55;100.00
6899;BME280;3488;42.616;23.350;2022-11-15T08:32:17;62584.06;;;5.67;100.00
6899;BME280;3488;42.616;23.350;2022-11-15T08:34:44;62554.75;;;5.41;100.00
6899;BME280;3488;42.616;23.350;2022-11-15T08:37:11;62578.50;;;5.66;100.00
6899;BME280;3488;42.616;23.350;2022-11-15T08:39:38;62592.31;;;5.75;100.00
6899;BME280;3488;42.616;23.350;2022-11-15T08:42:05;62565.06;;;5.51;100.00
6899;BME280;3488;42.616;23.350;2022-11-15T08:44:31;62578.00;;;5.66;100.00
6899;BME280;3488;42.616;23.350;2022-11-15T08:46:58;62583.16;;;5.71;100.00
6899;BME280;3488;42.616;23.350;2022-11-15T08:49:26;62610.38;;;5.93;100.00
6899;BME280;3488;42.616;23.350;2022-11-15T08:51:53;62621.28;;;6.08;100.00
6899;BME280;3488;42.616;23.350;2022-11-15T08:54:20;62604.28;;;5.92;100.00
6899;BME280;3488;42.616;23.350;2022-11-15T08:56:47;62593.44;;;5.81;100.00
6899;BME280;3488;42.616;23.350;2022-11-15T08:59:14;62597.53;;;5.82;100.00
6899;BME280;3488;42.616;23.350;2022-11-15T09:01:41;62565.50;;;5.49;100.00
6899;BME280;3488;42.616;23.350;2022-11-15T09:04:08;62569.69;;;5.55;100.00
6899;BME280;3488;42.616;23.350;2022-11-15T09:06:36;62618.59;;;6.01;100.00
6899;BME280;3488;42.616;23.350;2022-11-15T09:09:03;62621.25;;;6.06;100.00
6899;BME280;3488;42.616;23.350;2022-11-15T09:11:30;62613.00;;;5.98;100.00
6899;BME280;3488;42.616;23.350;2022-11-15T09:13:57;62643.84;;;6.25;100.00
6899;BME280;3488;42.616;23.350;2022-11-15T09:16:24;62657.22;;;6.36;100.00
6899;BME280;3488;42.616;23.350;2022-11-15T09:18:51;62662.94;;;6.44;100.00
6899;BME280;3488;42.616;23.350;2022-11-15T09:21:18;62651.13;;;6.35;100.00
6899;BME280;3488;42.616;23.350;2022-11-15T09:23:46;62673.75;;;6.54;100.00
6899;BME280;3488;42.616;23.350;2022-11-15T09:26:13;62695.50;;;6.80;100.00
6899;BME280;3488;42.616;23.350;2022-11-15T09:28:40;62738.78;;;7.20;100.00
6899;BME280;3488;42.616;23.350;2022-11-15T09:31:07;62749.16;;;7.33;100.00
6899;BME280;3488;42.616;23.350;2022-11-15T09:33:34;62748.03;;;7.27;100.00
6899;BME280;3488;42.616;23.350;2022-11-15T09:36:03;62687.28;;;6.72;100.00
6899;BME280;3488;42.616;23.350;2022-11-15T09:38:30;62696.56;;;6.81;100.00
6899;BME280;3488;42.616;23.350;2022-11-15T09:44:08;62661.44;;;6.45;100.00
6899;BME280;3488;42.616;23.350;2022-11-15T09:46:44;62695.56;;;6.83;100.00
6899;BME280;3488;42.616;23.350;2022-11-15T09:49:14;62719.72;;;7.01;100.00
6899;BME280;3488;42.616;23.350;2022-11-15T09:51:44;62747.66;;;7.34;100.00
6899;BME280;3488;42.616;23.350;2022-11-15T09:54:23;62773.88;;;7.54;100.00
6899;BME280;3488;42.616;23.350;2022-11-15T09:56:53;62760.94;;;7.39;100.00
6899;BME280;3488;42.616;23.350;2022-11-15T09:59:58;62742.88;;;7.22;100.00
6899;BME280;3488;42.616;23.350;2022-11-15T10:02:38;62725.94;;;7.10;100.00
6899;BME280;3488;42.616;23.350;2022-11-15T10:05:11;62684.13;;;6.67;100.00
6899;BME280;3488;42.616;23.350;2022-11-15T10:07:46;62714.56;;;6.96;100.00
6899;BME280;3488;42.616;23.350;2022-11-15T10:10:23;62746.50;;;7.25;100.00
6899;BME280;3488;42.616;23.350;2022-11-15T10:12:52;62787.88;;;7.70;100.00
6899;BME280;3488;42.616;23.350;2022-11-15T10:15:21;62804.34;;;7.84;100.00
6899;BME280;3488;42.616;23.350;2022-11-15T10:18:13;62814.19;;;7.96;100.00
6899;BME280;3488;42.616;23.350;2022-11-15T10:20:48;62806.38;;;7.83;100.00
6899;BME280;3488;42.616;23.350;2022-11-15T10:23:18;62756.34;;;7.37;100.00
6899;BME280;3488;42.616;23.350;2022-11-15T10:25:46;62726.94;;;7.09;100.00
6899;BME280;3488;42.616;23.350;2022-11-15T10:28:20;62725.38;;;7.07;100.00
6899;BME280;3488;42.616;23.350;2022-11-15T10:30:51;62714.59;;;6.99;100.00
6899;BME280;3488;42.616;23.350;2022-11-15T10:33:27;62751.66;;;7.30;100.00
6899;BME280;3488;42.616;23.350;2022-11-15T10:36:18;62779.56;;;7.60;100.00
6899;BME280;3488;42.616;23.350;2022-11-15T10:38:56;62772.34;;;7.53;100.00
6899;BME280;3488;42.616;23.350;2022-11-15T10:41:31;62780.09;;;7.60;100.00
6899;BME280;3488;42.616;23.350;2022-11-15T10:44:21;62775.44;;;7.56;100.00
6899;BME280;3488;42.616;23.350;2022-11-15T10:47:05;62791.44;;;7.71;100.00
6899;BME280;3488;42.616;23.350;2022-11-15T10:49:34;62795.00;;;7.72;100.00
6899;BME280;3488;42.616;23.350;2022-11-15T10:52:04;62791.94;;;7.72;100.00
6899;BME280;3488;42.616;23.350;2022-11-15T10:54:42;62785.75;;;7.66;100.00
6899;BME280;3488;42.616;23.350;2022-11-15T10:57:13;62786.25;;;7.66;100.00
6899;BME280;3488;42.616;23.350;2022-11-15T10:59:45;62791.91;;;7.69;100.00
6899;BME280;3488;42.616;23.350;2022-11-15T11:02:32;62788.34;;;7.68;100.00
6899;BME280;3488;42.616;23.350;2022-11-15T11:05:00;62821.84;;;7.98;100.00
6899;BME280;3488;42.616;23.350;2022-11-15T11:07:29;62787.84;;;7.68;100.00
6899;BME280;3488;42.616;23.350;2022-11-15T11:09:58;62817.72;;;7.94;100.00
6899;BME280;3488;42.616;23.350;2022-11-15T11:12:30;62844.47;;;8.15;100.00
6899;BME280;3488;42.616;23.350;2022-11-15T11:14:59;62857.53;;;8.36;100.00
6899;BME280;3488;42.616;23.350;2022-11-15T11:17:39;62869.31;;;8.42;100.00
6899;BME280;3488;42.616;23.350;2022-11-15T11:20:19;62866.28;;;8.42;100.00
6899;BME280;3488;42.616;23.350;2022-11-15T11:23:02;62874.06;;;8.52;100.00
6899;BME280;3488;42.616;23.350;2022-11-15T11:25:36;62888.56;;;8.68;100.00
6899;BME280;3488;42.616;23.350;2022-11-15T11:28:17;62906.47;;;8.76;100.00
6899;BME280;3488;42.616;23.350;2022-11-15T11:30:58;62891.63;;;8.69;100.00
6899;BME280;3488;42.616;23.350;2022-11-15T11:33:33;62921.06;;;8.97;100.00
6899;BME280;3488;42.616;23.350;2022-11-15T11:36:10;62924.75;;;9.03;100.00
6899;BME280;3488;42.616;23.350;2022-11-15T11:38:51;62948.00;;;9.26;100.00
6899;BME280;3488;42.616;23.350;2022-11-15T11:41:30;62937.59;;;9.11;100.00
6899;BME280;3488;42.616;23.350;2022-11-15T11:44:14;62958.78;;;9.31;100.00
6899;BME280;3488;42.616;23.350;2022-11-15T11:46:59;62959.88;;;9.38;100.00
6899;BME280;3488;42.616;23.350;2022-11-15T11:49:33;62955.25;;;9.33;100.00
6899;BME280;3488;42.616;23.350;2022-11-15T11:52:06;62970.75;;;9.48;100.00
6899;BME280;3488;42.616;23.350;2022-11-15T11:54:40;62960.94;;;9.39;100.00
6899;BME280;3488;42.616;23.350;2022-11-15T11:57:15;62961.44;;;9.39;100.00
6899;BME280;3488;42.616;23.350;2022-11-15T11:59:48;62978.38;;;9.48;100.00
6899;BME280;3488;42.616;23.350;2022-11-15T12:02:20;62981.06;;;9.58;99.46
6899;BME280;3488;42.616;23.350;2022-11-15T12:04:51;62974.84;;;9.50;99.88
6899;BME280;3488;42.616;23.350;2022-11-15T12:07:22;62985.13;;;9.57;100.00
6899;BME280;3488;42.616;23.350;2022-11-15T12:09:55;63006.84;;;9.78;99.00
6899;BME280;3488;42.616;23.350;2022-11-15T12:12:30;63016.13;;;9.85;98.92
6899;BME280;3488;42.616;23.350;2022-11-15T12:15:02;63024.53;;;10.00;99.05
6899;BME280;3488;42.616;23.350;2022-11-15T12:17:31;63042.56;;;10.13;98.02
6899;BME280;3488;42.616;23.350;2022-11-15T12:20:02;63061.19;;;10.31;97.63
6899;BME280;3488;42.616;23.350;2022-11-15T12:22:41;63066.91;;;10.39;95.80
6899;BME280;3488;42.616;23.350;2022-11-15T12:25:18;63061.25;;;10.36;94.82
6899;BME280;3488;42.616;23.350;2022-11-15T12:27:50;63049.84;;;10.22;96.00
6899;BME280;3488;42.616;23.350;2022-11-15T12:30:20;63059.16;;;10.31;95.89
6899;BME280;3488;42.616;23.350;2022-11-15T12:32:54;63070.53;;;10.42;96.65
6899;BME280;3488;42.616;23.350;2022-11-15T12:35:28;63061.19;;;10.31;96.64
6899;BME280;3488;42.616;23.350;2022-11-15T12:37:57;63071.56;;;10.43;95.94
6899;BME280;3488;42.616;23.350;2022-11-15T12:40:29;63076.28;;;10.51;95.73
6899;BME280;3488;42.616;23.350;2022-11-15T12:42:59;63080.38;;;10.52;94.84
6899;BME280;3488;42.616;23.350;2022-11-15T12:45:29;63065.88;;;10.38;94.82
6899;BME280;3488;42.616;23.350;2022-11-15T12:51:05;63074.53;;;10.39;94.10
6899;BME280;3488;42.616;23.350;2022-11-15T12:53:33;63072.13;;;10.46;94.26
6899;BME280;3488;42.616;23.350;2022-11-15T12:56:22;63077.28;;;10.49;93.88
6899;BME280;3488;42.616;23.350;2022-11-15T12:58:53;63070.91;;;10.35;94.37
6899;BME280;3488;42.616;23.350;2022-11-15T13:01:57;63061.78;;;10.36;95.51
6899;BME280;3488;42.616;23.350;2022-11-15T13:04:28;63079.28;;;10.48;94.11
6899;BME280;3488;42.616;23.350;2022-11-15T13:06:58;63079.31;;;10.51;94.11
6899;BME280;3488;42.616;23.350;2022-11-15T13:09:56;63087.03;;;10.56;94.09
6899;BME280;3488;42.616;23.350;2022-11-15T13:12:54;63061.22;;;10.33;94.66
6899;BME280;3488;42.616;23.350;2022-11-15T13:15:33;63057.09;;;10.29;95.05
6899;BME280;3488;42.616;23.350;2022-11-15T13:18:26;63062.72;;;10.32;95.07
6899;BME280;3488;42.616;23.350;2022-11-15T13:20:54;63063.81;;;10.36;94.94
6899;BME280;3488;42.616;23.350;2022-11-15T13:23:22;63072.56;;;10.42;94.93
6899;BME280;3488;42.616;23.350;2022-11-15T13:26:12;63081.94;;;10.54;94.64
6899;BME280;3488;42.616;23.350;2022-11-15T13:28:43;63077.78;;;10.49;94.45
6899;BME280;3488;42.616;23.350;2022-11-15T13:31:21;63090.16;;;10.59;94.21
6899;BME280;3488;42.616;23.350;2022-11-15T13:33:49;63088.13;;;10.60;94.58
6899;BME280;3488;42.616;23.350;2022-11-15T13:36:20;63096.84;;;10.63;94.37
6899;BME280;3488;42.616;23.350;2022-11-15T13:38:57;63078.91;;;10.56;93.48
6899;BME280;3488;42.616;23.350;2022-11-15T13:41:26;63086.03;;;10.55;93.57
6899;BME280;3488;42.616;23.350;2022-11-15T13:43:54;63079.31;;;10.51;94.03
6899;BME280;3488;42.616;23.350;2022-11-15T13:46:22;63077.16;;;10.44;94.28
6899;BME280;3488;42.616;23.350;2022-11-15T13:48:55;63067.97;;;10.40;94.47
6899;BME280;3488;42.616;23.350;2022-11-15T13:51:29;63064.81;;;10.34;94.63
6899;BME280;3488;42.616;23.350;2022-11-15T13:54:03;63055.50;;;10.25;94.84
6899;BME280;3488;42.616;23.350;2022-11-15T13:56:33;63055.50;;;10.25;94.80
6899;BME280;3488;42.616;23.350;2022-11-15T13:59:08;63050.31;;;10.20;95.17
6899;BME280;3488;42.616;23.350;2022-11-15T14:01:36;63042.03;;;10.12;95.48
6899;BME280;3488;42.616;23.350;2022-11-15T14:04:03;63039.44;;;10.10;95.77
6899;BME280;3488;42.616;23.350;2022-11-15T14:06:30;63034.25;;;10.05;95.91
6899;BME280;3488;42.616;23.350;2022-11-15T14:11:51;63012.53;;;9.84;97.99
6899;BME280;3488;42.616;23.350;2022-11-15T14:14:20;62999.16;;;9.73;98.67
6899;BME280;3488;42.616;23.350;2022-11-15T14:16:49;62984.16;;;9.59;99.87
6899;BME280;3488;42.616;23.350;2022-11-15T14:19:39;62976.84;;;9.49;100.00
6899;BME280;3488;42.616;23.350;2022-11-15T14:22:15;62972.69;;;9.43;100.00
6899;BME280;3488;42.616;23.350;2022-11-15T14:24:46;62970.13;;;9.43;100.00
6899;BME280;3488;42.616;23.350;2022-11-15T14:27:20;62967.50;;;9.38;100.00
6899;BME280;3488;42.616;23.350;2022-11-15T14:29:48;62957.78;;;9.33;100.00
6899;BME280;3488;42.616;23.350;2022-11-15T14:32:17;62944.81;;;9.18;100.00
6899;BME280;3488;42.616;23.350;2022-11-15T14:34:45;62939.13;;;9.12;100.00
6899;BME280;3488;42.616;23.350;2022-11-15T14:37:20;62935.97;;;9.07;100.00
6899;BME280;3488;42.616;23.350;2022-11-15T14:39:50;62923.16;;;8.99;100.00
6899;BME280;3488;42.616;23.350;2022-11-15T14:42:18;62923.59;;;8.95;100.00
6899;BME280;3488;42.616;23.350;2022-11-15T14:44:45;62908.72;;;8.88;100.00
6899;BME280;3488;42.616;23.350;2022-11-15T14:47:12;62907.59;;;8.82;100.00
6899;BME280;3488;42.616;23.350;2022-11-15T14:49:39;62896.84;;;8.76;100.00
6899;BME280;3488;42.616;23.350;2022-11-15T14:52:19;62894.16;;;8.69;100.00
6899;BME280;3488;42.616;23.350;2022-11-15T14:54:51;62882.84;;;8.60;100.00
6899;BME280;3488;42.616;23.350;2022-11-15T14:57:18;62877.69;;;8.55;100.00
6899;BME280;3488;42.616;23.350;2022-11-15T14:59:45;62866.84;;;8.45;100.00
6899;BME280;3488;42.616;23.350;2022-11-15T15:02:16;62856.00;;;8.34;100.00
6899;BME280;3488;42.616;23.350;2022-11-15T15:04:43;62855.91;;;8.29;100.00
6899;BME280;3488;42.616;23.350;2022-11-15T15:07:10;62841.03;;;8.22;100.00
6899;BME280;3488;42.616;23.350;2022-11-15T15:09:37;62836.81;;;8.13;100.00
6899;BME280;3488;42.616;23.350;2022-11-15T15:12:08;62834.25;;;8.10;100.00
6899;BME280;3488;42.616;23.350;2022-11-15T15:14:38;62823.50;;;8.05;100.00
6899;BME280;3488;42.616;23.350;2022-11-15T15:17:05;62823.44;;;8.02;100.00
6899;BME280;3488;42.616;23.350;2022-11-15T15:19:32;62813.09;;;7.92;100.00
6899;BME280;3488;42.616;23.350;2022-11-15T15:21:59;62797.69;;;7.80;100.00
6899;BME280;3488;42.616;23.350;2022-11-15T15:24:26;62793.47;;;7.71;100.00
6899;BME280;3488;42.616;23.350;2022-11-15T15:26:53;62789.88;;;7.70;100.00
6899;BME280;3488;42.616;23.350;2022-11-15T15:29:21;62781.63;;;7.62;100.00
6899;BME280;3488;42.616;23.350;2022-11-15T15:31:48;62785.16;;;7.60;100.00
6899;BME280;3488;42.616;23.350;2022-11-15T15:34:15;62777.47;;;7.55;100.00
6899;BME280;3488;42.616;23.350;2022-11-15T15:36:41;62769.75;;;7.50;100.00
6899;BME280;3488;42.616;23.350;2022-11-15T15:39:10;62748.56;;;7.27;100.00
6899;BME280;3488;42.616;23.350;2022-11-15T15:41:37;62737.31;;;7.21;100.00
6899;BME280;3488;42.616;23.350;2022-11-15T15:44:04;62729.03;;;7.13;100.00
6899;BME280;3488;42.616;23.350;2022-11-15T15:46:34;62727.97;;;7.10;100.00
6899;BME280;3488;42.616;23.350;2022-11-15T15:49:01;62714.56;;;6.96;100.00
6899;BME280;3488;42.616;23.350;2022-11-15T15:51:28;62708.31;;;6.88;100.00
6899;BME280;3488;42.616;23.350;2022-11-15T15:53:55;62704.28;;;6.89;100.00
6899;BME280;3488;42.616;23.350;2022-11-15T15:56:23;62705.78;;;6.88;100.00
6899;BME280;3488;42.616;23.350;2022-11-15T15:58:50;62715.53;;;6.95;100.00
6899;BME280;3488;42.616;23.350;2022-11-15T16:01:18;62721.72;;;7.01;100.00
6899;BME280;3488;42.616;23.350;2022-11-15T16:03:47;62720.69;;;7.00;100.00
6899;BME280;3488;42.616;23.350;2022-11-15T16:06:33;62732.03;;;7.11;100.00
6899;BME280;3488;42.616;23.350;2022-11-15T16:09:00;62745.50;;;7.27;100.00
6899;BME280;3488;42.616;23.350;2022-11-15T16:11:27;62759.91;;;7.38;100.00
6899;BME280;3488;42.616;23.350;2022-11-15T16:13:54;62759.38;;;7.38;100.00
6899;BME280;3488;42.616;23.350;2022-11-15T16:16:21;62759.91;;;7.38;100.00
6899;BME280;3488;42.616;23.350;2022-11-15T16:18:49;62759.44;;;7.40;100.00
6899;BME280;3488;42.616;23.350;2022-11-15T16:21:16;62764.09;;;7.45;100.00
6899;BME280;3488;42.616;23.350;2022-11-15T16:23:43;62763.53;;;7.42;100.00
6899;BME280;3488;42.616;23.350;2022-11-15T16:26:17;62760.41;;;7.39;100.00
6899;BME280;3488;42.616;23.350;2022-11-15T16:28:46;62759.47;;;7.43;100.00
6899;BME280;3488;42.616;23.350;2022-11-15T16:31:13;62755.25;;;7.34;100.00
6899;BME280;3488;42.616;23.350;2022-11-15T16:33:40;62753.25;;;7.34;100.00
6899;BME280;3488;42.616;23.350;2022-11-15T16:36:17;62749.59;;;7.28;100.00
6899;BME280;3488;42.616;23.350;2022-11-15T16:38:44;62741.94;;;7.26;100.00
6899;BME280;3488;42.616;23.350;2022-11-15T16:41:11;62742.88;;;7.22;100.00
6899;BME280;3488;42.616;23.350;2022-11-15T16:43:38;62735.19;;;7.17;100.00
6899;BME280;3488;42.616;23.350;2022-11-15T16:46:12;62732.63;;;7.14;100.00
6899;BME280;3488;42.616;23.350;2022-11-15T16:48:39;62715.06;;;6.97;100.00
6899;BME280;3488;42.616;23.350;2022-11-15T16:51:06;62704.25;;;6.86;100.00
6899;BME280;3488;42.616;23.350;2022-11-15T16:53:35;62701.56;;;6.79;100.00
6899;BME280;3488;42.616;23.350;2022-11-15T16:56:02;62692.88;;;6.75;100.00
6899;BME280;3488;42.616;23.350;2022-11-15T16:58:30;62688.75;;;6.71;100.00
6899;BME280;3488;42.616;23.350;2022-11-15T17:00:59;62687.19;;;6.67;100.00
6899;BME280;3488;42.616;23.350;2022-11-15T17:03:27;62684.69;;;6.70;100.00
6899;BME280;3488;42.616;23.350;2022-11-15T17:05:57;62679.00;;;6.64;100.00
6899;BME280;3488;42.616;23.350;2022-11-15T17:08:25;62670.72;;;6.54;100.00
6899;BME280;3488;42.616;23.350;2022-11-15T17:10:54;62671.69;;;6.52;100.00
6899;BME280;3488;42.616;23.350;2022-11-15T17:13:21;62674.28;;;6.55;100.00
6899;BME280;3488;42.616;23.350;2022-11-15T17:15:48;62669.59;;;6.48;100.00
6899;BME280;3488;42.616;23.350;2022-11-15T17:18:15;62662.47;;;6.46;100.00
6899;BME280;3488;42.616;23.350;2022-11-15T17:20:42;62669.06;;;6.47;100.00
6899;BME280;3488;42.616;23.350;2022-11-15T17:23:11;62660.00;;;6.48;100.00
6899;BME280;3488;42.616;23.350;2022-11-15T17:25:39;62668.13;;;6.51;100.00
6899;BME280;3488;42.616;23.350;2022-11-15T17:28:07;62667.63;;;6.51;100.00
6899;BME280;3488;42.616;23.350;2022-11-15T17:30:35;62659.94;;;6.46;100.00
6899;BME280;3488;42.616;23.350;2022-11-15T17:33:01;62662.47;;;6.46;100.00
6899;BME280;3488;42.616;23.350;2022-11-15T17:35:29;62666.06;;;6.49;100.00
6899;BME280;3488;42.616;23.350;2022-11-15T17:37:56;62666.59;;;6.50;100.00
6899;BME280;3488;42.616;23.350;2022-11-15T17:40:23;62668.09;;;6.49;100.00
6899;BME280;3488;42.616;23.350;2022-11-15T17:42:50;62663.97;;;6.45;100.00
6899;BME280;3488;42.616;23.350;2022-11-15T17:45:19;62670.50;;;6.44;100.00
6899;BME280;3488;42.616;23.350;2022-11-15T17:47:46;62657.31;;;6.41;100.00
6899;BME280;3488;42.616;23.350;2022-11-15T17:50:14;62662.44;;;6.43;100.00
6899;BME280;3488;42.616;23.350;2022-11-15T17:52:42;62668.13;;;6.51;100.00
6899;BME280;3488;42.616;23.350;2022-11-15T17:55:09;62666.59;;;6.50;100.00
6899;BME280;3488;42.616;23.350;2022-11-15T17:57:36;62660.91;;;6.44;100.00
6899;BME280;3488;42.616;23.350;2022-11-15T18:00:03;62660.41;;;6.44;100.00
6899;BME280;3488;42.616;23.350;2022-11-15T18:02:32;62659.91;;;6.43;100.00
6899;BME280;3488;42.616;23.350;2022-11-15T18:04:59;62664.50;;;6.45;100.00
6899;BME280;3488;42.616;23.350;2022-11-15T18:07:25;62657.31;;;6.41;100.00
6899;BME280;3488;42.616;23.350;2022-11-15T18:09:52;62653.69;;;6.37;100.00
6899;BME280;3488;42.616;23.350;2022-11-15T18:12:19;62659.28;;;6.38;100.00
6899;BME280;3488;42.616;23.350;2022-11-15T18:14:46;62651.63;;;6.35;100.00
6899;BME280;3488;42.616;23.350;2022-11-15T18:17:13;62654.69;;;6.36;100.00
6899;BME280;3488;42.616;23.350;2022-11-15T18:19:41;62645.00;;;6.31;100.00
6899;BME280;3488;42.616;23.350;2022-11-15T18:22:08;62653.66;;;6.35;100.00
6899;BME280;3488;42.616;23.350;2022-11-15T18:24:35;62642.94;;;6.29;100.00
6899;BME280;3488;42.616;23.350;2022-11-15T18:27:04;62639.31;;;6.26;100.00
6899;BME280;3488;42.616;23.350;2022-11-15T18:29:32;62631.56;;;6.16;100.00
6899;BME280;3488;42.616;23.350;2022-11-15T18:32:03;62623.34;;;6.10;100.00
6899;BME280;3488;42.616;23.350;2022-11-15T18:34:35;62618.19;;;6.05;100.00
6899;BME280;3488;42.616;23.350;2022-11-15T18:37:04;62617.63;;;6.02;100.00
6899;BME280;3488;42.616;23.350;2022-11-15T18:39:31;62616.03;;;5.98;100.00
6899;BME280;3488;42.616;23.350;2022-11-15T18:41:58;62620.16;;;6.02;100.00
6899;BME280;3488;42.616;23.350;2022-11-15T18:44:27;62608.34;;;5.93;100.00
6899;BME280;3488;42.616;23.350;2022-11-15T18:46:54;62607.75;;;5.88;100.00
6899;BME280;3488;42.616;23.350;2022-11-15T18:49:23;62599.59;;;5.84;100.00
6899;BME280;3488;42.616;23.350;2022-11-15T18:51:50;62596.94;;;5.79;100.00
6899;BME280;3488;42.616;23.350;2022-11-15T18:54:18;62591.84;;;5.77;100.00
6899;BME280;3488;42.616;23.350;2022-11-15T18:56:45;62595.34;;;5.75;100.00
6899;BME280;3488;42.616;23.350;2022-11-15T18:59:12;62589.84;;;5.77;100.00
6899;BME280;3488;42.616;23.350;2022-11-15T19:01:42;62582.56;;;5.68;100.00
6899;BME280;3488;42.616;23.350;2022-11-15T19:04:15;62586.75;;;5.74;100.00
6899;BME280;3488;42.616;23.350;2022-11-15T19:06:44;62585.59;;;5.68;100.00
6899;BME280;3488;42.616;23.350;2022-11-15T19:09:13;62586.63;;;5.69;100.00
6899;BME280;3488;42.616;23.350;2022-11-15T19:11:43;62579.53;;;5.67;100.00
6899;BME280;3488;42.616;23.350;2022-11-15T19:14:12;62574.88;;;5.63;100.00
6899;BME280;3488;42.616;23.350;2022-11-15T19:16:41;62579.44;;;5.62;100.00
6899;BME280;3488;42.616;23.350;2022-11-15T19:19:12;62578.00;;;5.66;100.00
6899;BME280;3488;42.616;23.350;2022-11-15T19:21:40;62581.56;;;5.69;100.00
6899;BME280;3488;42.616;23.350;2022-11-15T19:24:07;62584.69;;;5.72;100.00
6899;BME280;3488;42.616;23.350;2022-11-15T19:26:40;62585.59;;;5.68;100.00
6899;BME280;3488;42.616;23.350;2022-11-15T19:29:08;62584.09;;;5.69;100.00
6899;BME280;3488;42.616;23.350;2022-11-15T19:31:36;62574.94;;;5.65;100.00